sensor_id;sensor_type;location;lat;lon;timestamp;P1;durP1;ratioP1;P2;durP2;ratioP2
4837;SDS011;2433;48.768;9.154;2022-12-18T00:01:12;35.97;;;19.05;;
4837;SDS011;2433;48.768;9.154;2022-12-18T00:03:44;37.70;;;21.38;;
4837;SDS011;2433;48.768;9.154;2022-12-18T00:06:09;35.53;;;18.13;;
4837;SDS011;2433;48.768;9.154;2022-12-18T00:08:35;36.90;;;19.43;;
4837;SDS011;2433;48.768;9.154;2022-12-18T00:11:04;47.60;;;22.73;;
4837;SDS011;2433;48.768;9.154;2022-12-18T00:13:31;38.78;;;22.20;;
4837;SDS011;2433;48.768;9.154;2022-12-18T00:16:01;34.90;;;19.30;;
4837;SDS011;2433;48.768;9.154;2022-12-18T00:18:31;29.05;;;16.08;;
4837;SDS011;2433;48.768;9.154;2022-12-18T00:20:58;30.00;;;19.02;;
4837;SDS011;2433;48.768;9.154;2022-12-18T00:23:25;47.40;;;21.20;;
4837;SDS011;2433;48.768;9.154;2022-12-18T00:25:51;34.58;;;19.75;;
4837;SDS011;2433;48.768;9.154;2022-12-18T00:28:18;43.73;;;24.60;;
4837;SDS011;2433;48.768;9.154;2022-12-18T00:30:45;37.72;;;18.88;;
4837;SDS011;2433;48.768;9.154;2022-12-18T00:33:10;36.00;;;19.93;;
4837;SDS011;2433;48.768;9.154;2022-12-18T00:35:36;34.53;;;18.00;;
4837;SDS011;2433;48.768;9.154;2022-12-18T00:38:01;37.57;;;20.97;;
4837;SDS011;2433;48.768;9.154;2022-12-18T00:40:27;34.43;;;18.67;;
4837;SDS011;2433;48.768;9.154;2022-12-18T00:42:53;30.70;;;17.13;;
4837;SDS011;2433;48.768;9.154;2022-12-18T00:45:25;36.70;;;19.05;;
4837;SDS011;2433;48.768;9.154;2022-12-18T00:47:51;43.55;;;20.25;;
4837;SDS011;2433;48.768;9.154;2022-12-18T00:50:17;32.83;;;17.95;;
4837;SDS011;2433;48.768;9.154;2022-12-18T00:52:43;43.22;;;21.75;;
4837;SDS011;2433;48.768;9.154;2022-12-18T00:55:09;41.80;;;20.23;;
4837;SDS011;2433;48.768;9.154;2022-12-18T00:57:35;34.80;;;19.20;;
4837;SDS011;2433;48.768;9.154;2022-12-18T01:00:02;41.35;;;18.30;;
4837;SDS011;2433;48.768;9.154;2022-12-18T01:02:29;35.42;;;19.83;;
4837;SDS011;2433;48.768;9.154;2022-12-18T01:04:55;36.70;;;20.83;;
4837;SDS011;2433;48.768;9.154;2022-12-18T01:07:20;33.27;;;18.67;;
4837;SDS011;2433;48.768;9.154;2022-12-18T01:09:46;39.03;;;20.17;;
4837;SDS011;2433;48.768;9.154;2022-12-18T01:12:11;38.97;;;22.70;;
4837;SDS011;2433;48.768;9.154;2022-12-18T01:14:37;35.67;;;18.77;;
4837;SDS011;2433;48.768;9.154;2022-12-18T01:17:03;38.92;;;18.23;;
4837;SDS011;2433;48.768;9.154;2022-12-18T01:19:32;24.38;;;16.75;;
4837;SDS011;2433;48.768;9.154;2022-12-18T01:21:58;38.10;;;16.95;;
4837;SDS011;2433;48.768;9.154;2022-12-18T01:24:23;30.10;;;16.53;;
4837;SDS011;2433;48.768;9.154;2022-12-18T01:26:49;27.50;;;16.70;;
4837;SDS011;2433;48.768;9.154;2022-12-18T01:29:15;29.40;;;16.47;;
4837;SDS011;2433;48.768;9.154;2022-12-18T01:31:40;28.30;;;16.73;;
4837;SDS011;2433;48.768;9.154;2022-12-18T01:34:06;30.80;;;18.83;;
4837;SDS011;2433;48.768;9.154;2022-12-18T01:36:34;33.80;;;19.50;;
4837;SDS011;2433;48.768;9.154;2022-12-18T01:39:03;35.58;;;18.88;;
4837;SDS011;2433;48.768;9.154;2022-12-18T01:41:30;34.53;;;16.85;;
4837;SDS011;2433;48.768;9.154;2022-12-18T01:49:48;41.17;;;20.85;;
4837;SDS011;2433;48.768;9.154;2022-12-18T01:52:14;34.40;;;18.23;;
4837;SDS011;2433;48.768;9.154;2022-12-18T01:54:40;34.08;;;20.42;;
4837;SDS011;2433;48.768;9.154;2022-12-18T01:57:06;32.83;;;16.50;;
4837;SDS011;2433;48.768;9.154;2022-12-18T01:59:32;24.90;;;14.50;;
4837;SDS011;2433;48.768;9.154;2022-12-18T02:01:59;34.22;;;19.40;;
4837;SDS011;2433;48.768;9.154;2022-12-18T02:04:25;35.05;;;16.85;;
4837;SDS011;2433;48.768;9.154;2022-12-18T02:10:06;31.70;;;14.82;;
4837;SDS011;2433;48.768;9.154;2022-12-18T02:12:42;33.22;;;17.67;;
4837;SDS011;2433;48.768;9.154;2022-12-18T02:15:34;27.80;;;15.75;;
4837;SDS011;2433;48.768;9.154;2022-12-18T02:18:11;29.92;;;16.50;;
4837;SDS011;2433;48.768;9.154;2022-12-18T02:20:49;24.58;;;14.95;;
4837;SDS011;2433;48.768;9.154;2022-12-18T02:23:32;32.47;;;17.40;;
4837;SDS011;2433;48.768;9.154;2022-12-18T02:28:35;27.98;;;14.95;;
4837;SDS011;2433;48.768;9.154;2022-12-18T02:31:06;30.00;;;17.23;;
4837;SDS011;2433;48.768;9.154;2022-12-18T02:33:34;34.28;;;17.17;;
4837;SDS011;2433;48.768;9.154;2022-12-18T02:36:01;30.45;;;16.23;;
4837;SDS011;2433;48.768;9.154;2022-12-18T02:38:30;25.10;;;15.13;;
4837;SDS011;2433;48.768;9.154;2022-12-18T02:41:01;30.98;;;18.85;;
4837;SDS011;2433;48.768;9.154;2022-12-18T02:43:29;32.63;;;18.83;;
4837;SDS011;2433;48.768;9.154;2022-12-18T02:45:56;37.50;;;18.90;;
4837;SDS011;2433;48.768;9.154;2022-12-18T02:48:27;38.85;;;17.20;;
4837;SDS011;2433;48.768;9.154;2022-12-18T02:53:28;24.05;;;16.08;;
4837;SDS011;2433;48.768;9.154;2022-12-18T02:56:06;24.83;;;13.90;;
4837;SDS011;2433;48.768;9.154;2022-12-18T03:07:05;30.23;;;15.45;;
4837;SDS011;2433;48.768;9.154;2022-12-18T03:09:35;24.65;;;13.77;;
4837;SDS011;2433;48.768;9.154;2022-12-18T03:12:14;23.67;;;13.65;;
4837;SDS011;2433;48.768;9.154;2022-12-18T03:14:59;25.88;;;16.65;;
4837;SDS011;2433;48.768;9.154;2022-12-18T03:17:30;38.95;;;16.38;;
4837;SDS011;2433;48.768;9.154;2022-12-18T03:19:56;26.08;;;15.00;;
4837;SDS011;2433;48.768;9.154;2022-12-18T03:22:26;28.35;;;13.02;;
4837;SDS011;2433;48.768;9.154;2022-12-18T03:24:53;34.33;;;17.55;;
4837;SDS011;2433;48.768;9.154;2022-12-18T03:27:23;20.88;;;14.23;;
4837;SDS011;2433;48.768;9.154;2022-12-18T03:32:33;28.75;;;14.93;;
4837;SDS011;2433;48.768;9.154;2022-12-18T03:35:05;28.60;;;16.23;;
4837;SDS011;2433;48.768;9.154;2022-12-18T03:37:35;31.38;;;16.48;;
4837;SDS011;2433;48.768;9.154;2022-12-18T03:40:02;38.08;;;19.73;;
4837;SDS011;2433;48.768;9.154;2022-12-18T03:42:33;29.10;;;14.75;;
4837;SDS011;2433;48.768;9.154;2022-12-18T03:55:52;30.75;;;15.23;;
4837;SDS011;2433;48.768;9.154;2022-12-18T03:58:23;23.02;;;13.40;;
4837;SDS011;2433;48.768;9.154;2022-12-18T04:00:57;20.40;;;13.20;;
4837;SDS011;2433;48.768;9.154;2022-12-18T04:03:25;30.77;;;15.32;;
4837;SDS011;2433;48.768;9.154;2022-12-18T04:05:52;25.70;;;13.85;;
4837;SDS011;2433;48.768;9.154;2022-12-18T04:08:21;18.50;;;13.00;;
4837;SDS011;2433;48.768;9.154;2022-12-18T04:10:55;17.95;;;11.18;;
4837;SDS011;2433;48.768;9.154;2022-12-18T04:13:25;22.40;;;12.73;;
4837;SDS011;2433;48.768;9.154;2022-12-18T04:15:54;28.55;;;16.13;;
4837;SDS011;2433;48.768;9.154;2022-12-18T04:18:21;20.20;;;13.15;;
4837;SDS011;2433;48.768;9.154;2022-12-18T04:20:48;29.70;;;16.70;;
4837;SDS011;2433;48.768;9.154;2022-12-18T04:23:14;28.95;;;12.77;;
4837;SDS011;2433;48.768;9.154;2022-12-18T04:25:39;28.70;;;13.80;;
4837;SDS011;2433;48.768;9.154;2022-12-18T04:28:10;21.58;;;13.38;;
4837;SDS011;2433;48.768;9.154;2022-12-18T04:30:37;10.43;;;7.75;;
4837;SDS011;2433;48.768;9.154;2022-12-18T04:33:07;29.05;;;14.15;;
4837;SDS011;2433;48.768;9.154;2022-12-18T04:35:33;30.95;;;14.52;;
4837;SDS011;2433;48.768;9.154;2022-12-18T04:37:59;15.32;;;10.80;;
4837;SDS011;2433;48.768;9.154;2022-12-18T04:40:26;15.25;;;7.63;;
4837;SDS011;2433;48.768;9.154;2022-12-18T04:42:52;20.57;;;12.47;;
4837;SDS011;2433;48.768;9.154;2022-12-18T04:45:18;31.92;;;19.52;;
4837;SDS011;2433;48.768;9.154;2022-12-18T04:47:44;10.70;;;6.80;;
4837;SDS011;2433;48.768;9.154;2022-12-18T04:50:09;20.57;;;11.47;;
4837;SDS011;2433;48.768;9.154;2022-12-18T04:52:35;22.50;;;13.27;;
4837;SDS011;2433;48.768;9.154;2022-12-18T04:55:00;30.43;;;16.10;;
4837;SDS011;2433;48.768;9.154;2022-12-18T04:57:26;31.30;;;16.80;;
4837;SDS011;2433;48.768;9.154;2022-12-18T04:59:51;34.33;;;17.37;;
4837;SDS011;2433;48.768;9.154;2022-12-18T05:02:17;18.07;;;11.37;;
4837;SDS011;2433;48.768;9.154;2022-12-18T05:04:42;9.17;;;6.33;;
4837;SDS011;2433;48.768;9.154;2022-12-18T05:07:08;15.40;;;8.60;;
4837;SDS011;2433;48.768;9.154;2022-12-18T05:09:33;32.00;;;16.97;;
4837;SDS011;2433;48.768;9.154;2022-12-18T05:11:59;15.50;;;11.20;;
4837;SDS011;2433;48.768;9.154;2022-12-18T05:14:24;21.30;;;12.50;;
4837;SDS011;2433;48.768;9.154;2022-12-18T05:16:50;20.87;;;10.77;;
4837;SDS011;2433;48.768;9.154;2022-12-18T05:19:15;21.70;;;12.77;;
4837;SDS011;2433;48.768;9.154;2022-12-18T05:21:41;26.93;;;14.30;;
4837;SDS011;2433;48.768;9.154;2022-12-18T05:24:07;19.50;;;12.37;;
4837;SDS011;2433;48.768;9.154;2022-12-18T05:26:32;30.13;;;16.10;;
4837;SDS011;2433;48.768;9.154;2022-12-18T05:28:58;15.60;;;9.87;;
4837;SDS011;2433;48.768;9.154;2022-12-18T05:31:24;27.37;;;12.10;;
4837;SDS011;2433;48.768;9.154;2022-12-18T05:33:49;28.50;;;16.60;;
4837;SDS011;2433;48.768;9.154;2022-12-18T05:36:15;17.03;;;10.73;;
4837;SDS011;2433;48.768;9.154;2022-12-18T05:38:41;24.77;;;12.93;;
4837;SDS011;2433;48.768;9.154;2022-12-18T05:41:07;25.70;;;14.23;;
4837;SDS011;2433;48.768;9.154;2022-12-18T05:43:34;25.45;;;13.63;;
4837;SDS011;2433;48.768;9.154;2022-12-18T05:46:05;28.02;;;16.40;;
4837;SDS011;2433;48.768;9.154;2022-12-18T05:48:32;26.77;;;13.73;;
4837;SDS011;2433;48.768;9.154;2022-12-18T05:51:02;24.17;;;13.10;;
4837;SDS011;2433;48.768;9.154;2022-12-18T05:53:39;18.67;;;11.10;;
4837;SDS011;2433;48.768;9.154;2022-12-18T05:56:06;23.45;;;12.32;;
4837;SDS011;2433;48.768;9.154;2022-12-18T05:58:33;20.10;;;11.63;;
4837;SDS011;2433;48.768;9.154;2022-12-18T06:01:05;25.55;;;14.00;;
4837;SDS011;2433;48.768;9.154;2022-12-18T06:03:41;19.55;;;10.77;;
4837;SDS011;2433;48.768;9.154;2022-12-18T06:06:16;21.07;;;11.10;;
4837;SDS011;2433;48.768;9.154;2022-12-18T06:08:43;19.85;;;11.27;;
4837;SDS011;2433;48.768;9.154;2022-12-18T06:11:10;19.88;;;11.55;;
4837;SDS011;2433;48.768;9.154;2022-12-18T06:13:35;26.43;;;13.47;;
4837;SDS011;2433;48.768;9.154;2022-12-18T06:16:02;23.57;;;12.67;;
4837;SDS011;2433;48.768;9.154;2022-12-18T06:18:30;16.05;;;11.02;;
4837;SDS011;2433;48.768;9.154;2022-12-18T06:20:57;27.70;;;14.57;;
4837;SDS011;2433;48.768;9.154;2022-12-18T06:23:23;20.27;;;11.85;;
4837;SDS011;2433;48.768;9.154;2022-12-18T06:25:48;30.37;;;12.97;;
4837;SDS011;2433;48.768;9.154;2022-12-18T06:28:14;20.83;;;13.33;;
4837;SDS011;2433;48.768;9.154;2022-12-18T06:30:39;17.00;;;11.73;;
4837;SDS011;2433;48.768;9.154;2022-12-18T06:33:05;22.30;;;12.57;;
4837;SDS011;2433;48.768;9.154;2022-12-18T06:35:31;20.08;;;10.93;;
4837;SDS011;2433;48.768;9.154;2022-12-18T06:37:57;22.70;;;12.97;;
4837;SDS011;2433;48.768;9.154;2022-12-18T06:40:22;18.30;;;9.73;;
4837;SDS011;2433;48.768;9.154;2022-12-18T06:42:48;22.73;;;14.27;;
4837;SDS011;2433;48.768;9.154;2022-12-18T06:45:14;23.87;;;14.10;;
4837;SDS011;2433;48.768;9.154;2022-12-18T06:47:41;21.35;;;12.05;;
4837;SDS011;2433;48.768;9.154;2022-12-18T06:50:06;24.20;;;13.23;;
4837;SDS011;2433;48.768;9.154;2022-12-18T06:52:33;25.23;;;13.35;;
4837;SDS011;2433;48.768;9.154;2022-12-18T06:54:58;20.63;;;11.00;;
4837;SDS011;2433;48.768;9.154;2022-12-18T06:57:24;25.83;;;10.83;;
4837;SDS011;2433;48.768;9.154;2022-12-18T06:59:50;17.17;;;9.40;;
4837;SDS011;2433;48.768;9.154;2022-12-18T07:02:15;15.33;;;10.77;;
4837;SDS011;2433;48.768;9.154;2022-12-18T07:04:41;17.13;;;11.53;;
4837;SDS011;2433;48.768;9.154;2022-12-18T07:07:07;33.90;;;14.60;;
4837;SDS011;2433;48.768;9.154;2022-12-18T07:09:32;23.40;;;13.17;;
4837;SDS011;2433;48.768;9.154;2022-12-18T07:11:58;20.80;;;13.00;;
4837;SDS011;2433;48.768;9.154;2022-12-18T07:14:23;24.83;;;13.10;;
4837;SDS011;2433;48.768;9.154;2022-12-18T07:16:49;17.53;;;10.30;;
4837;SDS011;2433;48.768;9.154;2022-12-18T07:19:14;20.13;;;11.23;;
4837;SDS011;2433;48.768;9.154;2022-12-18T07:21:40;25.13;;;12.37;;
4837;SDS011;2433;48.768;9.154;2022-12-18T07:24:05;20.60;;;11.97;;
4837;SDS011;2433;48.768;9.154;2022-12-18T07:26:31;25.07;;;13.70;;
4837;SDS011;2433;48.768;9.154;2022-12-18T07:28:57;18.23;;;11.10;;
4837;SDS011;2433;48.768;9.154;2022-12-18T07:31:23;30.00;;;12.77;;
4837;SDS011;2433;48.768;9.154;2022-12-18T07:33:50;10.07;;;5.50;;
4837;SDS011;2433;48.768;9.154;2022-12-18T07:36:16;15.57;;;10.45;;
4837;SDS011;2433;48.768;9.154;2022-12-18T07:38:41;17.00;;;10.10;;
4837;SDS011;2433;48.768;9.154;2022-12-18T07:41:11;28.03;;;14.67;;
4837;SDS011;2433;48.768;9.154;2022-12-18T07:43:37;28.10;;;10.35;;
4837;SDS011;2433;48.768;9.154;2022-12-18T07:46:04;23.52;;;13.82;;
4837;SDS011;2433;48.768;9.154;2022-12-18T07:48:30;26.42;;;14.40;;
4837;SDS011;2433;48.768;9.154;2022-12-18T07:51:00;18.50;;;12.63;;
4837;SDS011;2433;48.768;9.154;2022-12-18T07:53:29;21.55;;;11.45;;
4837;SDS011;2433;48.768;9.154;2022-12-18T07:55:56;12.20;;;10.57;;
4837;SDS011;2433;48.768;9.154;2022-12-18T07:58:25;32.42;;;14.27;;
4837;SDS011;2433;48.768;9.154;2022-12-18T08:00:51;22.03;;;13.40;;
4837;SDS011;2433;48.768;9.154;2022-12-18T08:03:17;23.40;;;13.98;;
4837;SDS011;2433;48.768;9.154;2022-12-18T08:05:43;31.15;;;17.88;;
4837;SDS011;2433;48.768;9.154;2022-12-18T08:08:09;24.30;;;13.10;;
4837;SDS011;2433;48.768;9.154;2022-12-18T08:10:34;31.93;;;15.90;;
4837;SDS011;2433;48.768;9.154;2022-12-18T08:13:00;19.53;;;11.60;;
4837;SDS011;2433;48.768;9.154;2022-12-18T08:15:25;22.40;;;12.60;;
4837;SDS011;2433;48.768;9.154;2022-12-18T08:17:57;25.27;;;13.30;;
4837;SDS011;2433;48.768;9.154;2022-12-18T08:20:23;26.48;;;14.27;;
4837;SDS011;2433;48.768;9.154;2022-12-18T08:22:49;25.43;;;14.93;;
4837;SDS011;2433;48.768;9.154;2022-12-18T08:25:16;22.40;;;12.93;;
4837;SDS011;2433;48.768;9.154;2022-12-18T08:27:43;21.50;;;13.90;;
4837;SDS011;2433;48.768;9.154;2022-12-18T08:30:09;17.48;;;10.65;;
4837;SDS011;2433;48.768;9.154;2022-12-18T08:32:35;31.15;;;15.48;;
4837;SDS011;2433;48.768;9.154;2022-12-18T08:35:01;23.10;;;10.57;;
4837;SDS011;2433;48.768;9.154;2022-12-18T08:37:27;23.43;;;11.57;;
4837;SDS011;2433;48.768;9.154;2022-12-18T08:39:53;29.17;;;12.73;;
4837;SDS011;2433;48.768;9.154;2022-12-18T08:42:18;27.20;;;16.00;;
4837;SDS011;2433;48.768;9.154;2022-12-18T08:45:03;33.83;;;17.45;;
4837;SDS011;2433;48.768;9.154;2022-12-18T08:47:29;24.48;;;13.60;;
4837;SDS011;2433;48.768;9.154;2022-12-18T08:49:54;22.30;;;13.57;;
4837;SDS011;2433;48.768;9.154;2022-12-18T08:52:20;29.83;;;15.97;;
4837;SDS011;2433;48.768;9.154;2022-12-18T08:54:45;23.83;;;14.93;;
4837;SDS011;2433;48.768;9.154;2022-12-18T08:57:11;30.40;;;16.13;;
4837;SDS011;2433;48.768;9.154;2022-12-18T08:59:36;23.33;;;12.43;;
4837;SDS011;2433;48.768;9.154;2022-12-18T09:02:02;38.83;;;19.40;;
4837;SDS011;2433;48.768;9.154;2022-12-18T09:04:28;36.53;;;18.30;;
4837;SDS011;2433;48.768;9.154;2022-12-18T09:06:55;45.03;;;18.30;;
4837;SDS011;2433;48.768;9.154;2022-12-18T09:09:20;32.47;;;19.92;;
4837;SDS011;2433;48.768;9.154;2022-12-18T09:11:46;32.97;;;17.97;;
4837;SDS011;2433;48.768;9.154;2022-12-18T09:14:11;33.37;;;16.43;;
4837;SDS011;2433;48.768;9.154;2022-12-18T09:16:37;30.43;;;18.33;;
4837;SDS011;2433;48.768;9.154;2022-12-18T09:19:03;26.47;;;13.73;;
4837;SDS011;2433;48.768;9.154;2022-12-18T09:21:30;31.25;;;15.07;;
4837;SDS011;2433;48.768;9.154;2022-12-18T09:23:58;31.13;;;16.10;;
4837;SDS011;2433;48.768;9.154;2022-12-18T09:26:24;26.48;;;14.30;;
4837;SDS011;2433;48.768;9.154;2022-12-18T09:28:50;35.15;;;18.40;;
4837;SDS011;2433;48.768;9.154;2022-12-18T09:31:16;33.60;;;18.27;;
4837;SDS011;2433;48.768;9.154;2022-12-18T09:33:43;32.05;;;16.33;;
4837;SDS011;2433;48.768;9.154;2022-12-18T09:36:11;29.77;;;15.45;;
4837;SDS011;2433;48.768;9.154;2022-12-18T09:38:38;34.53;;;17.05;;
4837;SDS011;2433;48.768;9.154;2022-12-18T09:46:54;38.30;;;18.58;;
4837;SDS011;2433;48.768;9.154;2022-12-18T09:49:25;27.13;;;15.80;;
4837;SDS011;2433;48.768;9.154;2022-12-18T09:52:05;32.65;;;17.20;;
4837;SDS011;2433;48.768;9.154;2022-12-18T09:54:38;33.72;;;17.88;;
4837;SDS011;2433;48.768;9.154;2022-12-18T09:57:18;37.22;;;20.75;;
4837;SDS011;2433;48.768;9.154;2022-12-18T09:59:47;31.73;;;18.42;;
4837;SDS011;2433;48.768;9.154;2022-12-18T10:02:21;34.08;;;18.45;;
4837;SDS011;2433;48.768;9.154;2022-12-18T10:10:15;28.92;;;18.70;;
4837;SDS011;2433;48.768;9.154;2022-12-18T10:12:57;31.55;;;15.40;;
4837;SDS011;2433;48.768;9.154;2022-12-18T10:15:54;26.35;;;14.30;;
4837;SDS011;2433;48.768;9.154;2022-12-18T10:20:56;30.13;;;16.30;;
4837;SDS011;2433;48.768;9.154;2022-12-18T10:23:28;35.97;;;15.95;;
4837;SDS011;2433;48.768;9.154;2022-12-18T10:26:03;35.22;;;15.48;;
4837;SDS011;2433;48.768;9.154;2022-12-18T10:28:31;22.65;;;13.15;;
4837;SDS011;2433;48.768;9.154;2022-12-18T10:30:58;33.03;;;20.92;;
4837;SDS011;2433;48.768;9.154;2022-12-18T10:33:27;36.30;;;16.03;;
4837;SDS011;2433;48.768;9.154;2022-12-18T10:35:56;27.60;;;16.83;;
4837;SDS011;2433;48.768;9.154;2022-12-18T10:38:23;27.33;;;15.00;;
4837;SDS011;2433;48.768;9.154;2022-12-18T10:40:58;26.80;;;15.10;;
4837;SDS011;2433;48.768;9.154;2022-12-18T10:46:07;27.60;;;16.95;;
4837;SDS011;2433;48.768;9.154;2022-12-18T10:51:07;33.55;;;17.25;;
4837;SDS011;2433;48.768;9.154;2022-12-18T10:53:34;33.17;;;16.60;;
4837;SDS011;2433;48.768;9.154;2022-12-18T10:56:02;35.63;;;16.73;;
4837;SDS011;2433;48.768;9.154;2022-12-18T10:58:30;30.23;;;15.82;;
4837;SDS011;2433;48.768;9.154;2022-12-18T11:03:39;26.60;;;13.60;;
4837;SDS011;2433;48.768;9.154;2022-12-18T11:06:13;32.80;;;16.90;;
4837;SDS011;2433;48.768;9.154;2022-12-18T11:08:41;24.80;;;14.70;;
4837;SDS011;2433;48.768;9.154;2022-12-18T11:11:19;24.63;;;15.98;;
4837;SDS011;2433;48.768;9.154;2022-12-18T11:13:56;27.60;;;14.43;;
4837;SDS011;2433;48.768;9.154;2022-12-18T11:16:27;24.90;;;13.65;;
4837;SDS011;2433;48.768;9.154;2022-12-18T11:18:53;30.73;;;17.73;;
4837;SDS011;2433;48.768;9.154;2022-12-18T11:21:19;29.80;;;15.20;;
4837;SDS011;2433;48.768;9.154;2022-12-18T11:23:53;31.70;;;15.20;;
4837;SDS011;2433;48.768;9.154;2022-12-18T11:26:19;31.65;;;18.48;;
4837;SDS011;2433;48.768;9.154;2022-12-18T11:28:47;30.00;;;16.70;;
4837;SDS011;2433;48.768;9.154;2022-12-18T11:34:00;29.75;;;16.15;;
4837;SDS011;2433;48.768;9.154;2022-12-18T11:36:45;26.15;;;13.77;;
4837;SDS011;2433;48.768;9.154;2022-12-18T11:39:18;30.92;;;15.45;;
4837;SDS011;2433;48.768;9.154;2022-12-18T11:44:48;29.75;;;15.93;;
4837;SDS011;2433;48.768;9.154;2022-12-18T11:50:12;28.70;;;15.05;;
4837;SDS011;2433;48.768;9.154;2022-12-18T11:52:43;26.50;;;15.80;;
4837;SDS011;2433;48.768;9.154;2022-12-18T11:55:16;29.80;;;15.65;;
4837;SDS011;2433;48.768;9.154;2022-12-18T11:57:54;25.63;;;13.68;;
4837;SDS011;2433;48.768;9.154;2022-12-18T12:00:22;34.42;;;17.23;;
4837;SDS011;2433;48.768;9.154;2022-12-18T12:10:41;29.50;;;15.25;;
4837;SDS011;2433;48.768;9.154;2022-12-18T12:16:15;24.95;;;14.02;;
4837;SDS011;2433;48.768;9.154;2022-12-18T12:18:53;37.72;;;16.30;;
4837;SDS011;2433;48.768;9.154;2022-12-18T12:21:39;32.92;;;14.77;;
4837;SDS011;2433;48.768;9.154;2022-12-18T12:29:48;32.17;;;14.48;;
4837;SDS011;2433;48.768;9.154;2022-12-18T12:35:14;24.27;;;14.00;;
4837;SDS011;2433;48.768;9.154;2022-12-18T12:40:38;22.75;;;12.85;;
4837;SDS011;2433;48.768;9.154;2022-12-18T12:43:14;24.98;;;12.52;;
4837;SDS011;2433;48.768;9.154;2022-12-18T12:45:47;31.13;;;14.85;;
4837;SDS011;2433;48.768;9.154;2022-12-18T12:48:16;26.58;;;12.20;;
4837;SDS011;2433;48.768;9.154;2022-12-18T12:51:06;22.13;;;12.05;;
4837;SDS011;2433;48.768;9.154;2022-12-18T12:53:35;25.73;;;13.90;;
4837;SDS011;2433;48.768;9.154;2022-12-18T12:56:03;33.97;;;13.10;;
4837;SDS011;2433;48.768;9.154;2022-12-18T13:01:49;29.38;;;13.40;;
4837;SDS011;2433;48.768;9.154;2022-12-18T13:06:56;23.42;;;12.10;;
4837;SDS011;2433;48.768;9.154;2022-12-18T13:09:31;23.40;;;13.55;;
4837;SDS011;2433;48.768;9.154;2022-12-18T13:12:01;29.38;;;13.65;;
4837;SDS011;2433;48.768;9.154;2022-12-18T13:14:46;32.28;;;12.63;;
4837;SDS011;2433;48.768;9.154;2022-12-18T13:20:06;20.80;;;12.00;;
4837;SDS011;2433;48.768;9.154;2022-12-18T13:22:47;27.45;;;13.80;;
4837;SDS011;2433;48.768;9.154;2022-12-18T13:28:12;27.55;;;14.48;;
4837;SDS011;2433;48.768;9.154;2022-12-18T13:30:44;26.95;;;14.27;;
4837;SDS011;2433;48.768;9.154;2022-12-18T13:43:24;27.00;;;15.13;;
4837;SDS011;2433;48.768;9.154;2022-12-18T13:46:05;30.23;;;13.27;;
4837;SDS011;2433;48.768;9.154;2022-12-18T13:48:32;23.80;;;12.43;;
4837;SDS011;2433;48.768;9.154;2022-12-18T13:51:00;26.90;;;12.93;;
4837;SDS011;2433;48.768;9.154;2022-12-18T13:56:27;25.73;;;14.88;;
4837;SDS011;2433;48.768;9.154;2022-12-18T13:59:05;32.30;;;12.55;;
4837;SDS011;2433;48.768;9.154;2022-12-18T14:01:36;25.48;;;15.07;;
4837;SDS011;2433;48.768;9.154;2022-12-18T14:04:11;29.93;;;13.10;;
4837;SDS011;2433;48.768;9.154;2022-12-18T14:06:46;28.25;;;12.88;;
4837;SDS011;2433;48.768;9.154;2022-12-18T14:09:16;28.17;;;13.88;;
4837;SDS011;2433;48.768;9.154;2022-12-18T14:11:46;32.75;;;16.77;;
4837;SDS011;2433;48.768;9.154;2022-12-18T14:14:14;29.95;;;14.13;;
4837;SDS011;2433;48.768;9.154;2022-12-18T14:16:41;25.50;;;14.40;;
4837;SDS011;2433;48.768;9.154;2022-12-18T14:19:08;35.40;;;16.30;;
4837;SDS011;2433;48.768;9.154;2022-12-18T14:21:38;32.42;;;15.15;;
4837;SDS011;2433;48.768;9.154;2022-12-18T14:24:15;25.43;;;12.97;;
4837;SDS011;2433;48.768;9.154;2022-12-18T14:26:45;28.33;;;13.90;;
4837;SDS011;2433;48.768;9.154;2022-12-18T14:29:19;27.02;;;14.73;;
4837;SDS011;2433;48.768;9.154;2022-12-18T14:34:45;26.65;;;13.80;;
4837;SDS011;2433;48.768;9.154;2022-12-18T14:37:15;24.67;;;13.43;;
4837;SDS011;2433;48.768;9.154;2022-12-18T14:39:51;27.70;;;14.63;;
4837;SDS011;2433;48.768;9.154;2022-12-18T14:42:18;35.13;;;15.07;;
4837;SDS011;2433;48.768;9.154;2022-12-18T14:44:43;29.70;;;15.27;;
4837;SDS011;2433;48.768;9.154;2022-12-18T14:47:13;27.43;;;14.57;;
4837;SDS011;2433;48.768;9.154;2022-12-18T14:49:39;28.92;;;14.43;;
4837;SDS011;2433;48.768;9.154;2022-12-18T14:52:19;30.63;;;15.77;;
4837;SDS011;2433;48.768;9.154;2022-12-18T14:54:52;34.78;;;15.25;;
4837;SDS011;2433;48.768;9.154;2022-12-18T14:57:25;26.88;;;15.75;;
4837;SDS011;2433;48.768;9.154;2022-12-18T15:00:05;37.22;;;15.52;;
4837;SDS011;2433;48.768;9.154;2022-12-18T15:02:31;33.60;;;15.60;;
4837;SDS011;2433;48.768;9.154;2022-12-18T15:05:05;26.75;;;16.00;;
4837;SDS011;2433;48.768;9.154;2022-12-18T15:07:42;32.33;;;16.42;;
4837;SDS011;2433;48.768;9.154;2022-12-18T15:10:14;29.90;;;15.70;;
4837;SDS011;2433;48.768;9.154;2022-12-18T15:15:43;30.55;;;14.95;;
4837;SDS011;2433;48.768;9.154;2022-12-18T15:23:11;35.55;;;17.17;;
4837;SDS011;2433;48.768;9.154;2022-12-18T15:31:04;31.40;;;16.75;;
4837;SDS011;2433;48.768;9.154;2022-12-18T15:33:31;29.73;;;17.20;;
4837;SDS011;2433;48.768;9.154;2022-12-18T15:36:25;28.98;;;14.90;;
4837;SDS011;2433;48.768;9.154;2022-12-18T15:38:55;31.88;;;17.33;;
4837;SDS011;2433;48.768;9.154;2022-12-18T15:41:22;31.55;;;17.98;;
4837;SDS011;2433;48.768;9.154;2022-12-18T15:43:49;31.95;;;15.95;;
4837;SDS011;2433;48.768;9.154;2022-12-18T15:48:47;31.33;;;17.02;;
4837;SDS011;2433;48.768;9.154;2022-12-18T15:51:18;31.77;;;16.60;;
4837;SDS011;2433;48.768;9.154;2022-12-18T15:53:46;33.08;;;16.65;;
4837;SDS011;2433;48.768;9.154;2022-12-18T15:56:13;32.50;;;16.17;;
4837;SDS011;2433;48.768;9.154;2022-12-18T15:58:59;26.75;;;15.68;;
4837;SDS011;2433;48.768;9.154;2022-12-18T16:01:26;32.30;;;17.40;;
4837;SDS011;2433;48.768;9.154;2022-12-18T16:03:53;30.67;;;16.63;;
4837;SDS011;2433;48.768;9.154;2022-12-18T16:06:19;34.83;;;16.30;;
4837;SDS011;2433;48.768;9.154;2022-12-18T16:08:46;30.10;;;14.93;;
4837;SDS011;2433;48.768;9.154;2022-12-18T16:11:22;33.87;;;17.40;;
4837;SDS011;2433;48.768;9.154;2022-12-18T16:14:12;38.25;;;17.05;;
4837;SDS011;2433;48.768;9.154;2022-12-18T16:16:42;37.65;;;19.60;;
4837;SDS011;2433;48.768;9.154;2022-12-18T16:19:09;28.75;;;17.00;;
4837;SDS011;2433;48.768;9.154;2022-12-18T16:21:34;31.83;;;16.83;;
4837;SDS011;2433;48.768;9.154;2022-12-18T16:24:00;36.03;;;18.77;;
4837;SDS011;2433;48.768;9.154;2022-12-18T16:26:32;32.15;;;19.15;;
4837;SDS011;2433;48.768;9.154;2022-12-18T16:28:58;34.05;;;18.02;;
4837;SDS011;2433;48.768;9.154;2022-12-18T16:31:24;31.77;;;16.83;;
4837;SDS011;2433;48.768;9.154;2022-12-18T16:33:49;33.77;;;17.70;;
4837;SDS011;2433;48.768;9.154;2022-12-18T16:36:15;32.90;;;16.77;;
4837;SDS011;2433;48.768;9.154;2022-12-18T16:38:41;28.67;;;18.47;;
4837;SDS011;2433;48.768;9.154;2022-12-18T16:41:19;30.70;;;15.48;;
4837;SDS011;2433;48.768;9.154;2022-12-18T16:43:57;31.05;;;17.08;;
4837;SDS011;2433;48.768;9.154;2022-12-18T16:46:23;33.13;;;17.50;;
4837;SDS011;2433;48.768;9.154;2022-12-18T16:48:49;31.07;;;18.13;;
4837;SDS011;2433;48.768;9.154;2022-12-18T16:51:14;29.67;;;16.47;;
4837;SDS011;2433;48.768;9.154;2022-12-18T16:53:40;25.50;;;16.30;;
4837;SDS011;2433;48.768;9.154;2022-12-18T16:56:06;36.83;;;21.53;;
4837;SDS011;2433;48.768;9.154;2022-12-18T16:58:32;34.10;;;19.30;;
4837;SDS011;2433;48.768;9.154;2022-12-18T17:01:00;33.42;;;18.45;;
4837;SDS011;2433;48.768;9.154;2022-12-18T17:03:25;38.05;;;17.85;;
4837;SDS011;2433;48.768;9.154;2022-12-18T17:05:51;36.25;;;20.33;;
4837;SDS011;2433;48.768;9.154;2022-12-18T17:08:17;33.37;;;18.63;;
4837;SDS011;2433;48.768;9.154;2022-12-18T17:10:42;33.57;;;17.57;;